Time;durP1;ratioP1;P1;durP2;ratioP2;P2;SDS_P1;SDS_P2;PMS_P1;PMS_P2;Temp;Humidity;BMP_temperature;BMP_pressure;BME280_temperature;BME280_humidity;BME280_pressure;Samples;Min_cycle;Max_cycle;Signal;HPM_P1;HPM_P2
2022/03/02 00:02:05;;;;;;;42.10;22.17;;;6.70;99.90;;;;;;5069010;28;20083;-66
2022/03/02 00:04:30;;;;;;;39.55;20.83;;;6.70;99.90;;;;;;5070053;28;20044;-66
2022/03/02 00:06:56;;;;;;;37.47;21.08;;;6.80;99.90;;;;;;5081489;28;20039;-66
2022/03/02 00:09:22;;;;;;;43.63;22.58;;;6.70;99.90;;;;;;5101003;28;20048;-66
2022/03/02 00:11:47;;;;;;;40.65;22.25;;;6.70;99.90;;;;;;5109626;28;20035;-66
2022/03/02 00:14:13;;;;;;;37.35;21.05;;;6.70;99.90;;;;;;5110360;28;20032;-66
2022/03/02 00:16:38;;;;;;;44.00;23.08;;;6.70;99.90;;;;;;5110104;28;20036;-66
2022/03/02 00:19:04;;;;;;;42.25;22.83;;;6.70;99.90;;;;;;5110181;28;20467;-66
2022/03/02 00:21:30;;;;;;;38.88;22.20;;;6.70;99.90;;;;;;5110249;28;20038;-66
2022/03/02 00:23:55;;;;;;;40.65;22.90;;;6.70;99.90;;;;;;5109658;28;20040;-66
2022/03/02 00:26:21;;;;;;;41.28;21.75;;;6.70;99.90;;;;;;5110030;28;20062;-66
2022/03/02 00:28:47;;;;;;;44.40;22.48;;;6.70;99.90;;;;;;5110268;28;20047;-67
2022/03/02 00:31:12;;;;;;;41.55;23.15;;;6.70;99.90;;;;;;5110119;28;20036;-66
2022/03/02 00:33:38;;;;;;;44.92;23.77;;;6.70;99.90;;;;;;5109258;28;20044;-66
2022/03/02 00:36:05;;;;;;;44.00;23.67;;;6.70;99.90;;;;;;5110222;28;20380;-66
2022/03/02 00:38:30;;;;;;;46.10;23.90;;;6.70;99.90;;;;;;5113401;28;20035;-66
2022/03/02 00:40:56;;;;;;;39.53;21.38;;;6.60;99.90;;;;;;5116306;28;20036;-66
2022/03/02 00:43:22;;;;;;;40.85;22.25;;;6.60;99.90;;;;;;5119887;28;20589;-66
2022/03/02 00:45:48;;;;;;;42.05;23.67;;;6.60;99.90;;;;;;5116923;28;20071;-66
2022/03/02 00:48:14;;;;;;;43.75;22.85;;;6.50;99.90;;;;;;5114037;28;20050;-66
2022/03/02 00:50:40;;;;;;;43.80;23.55;;;6.60;99.90;;;;;;5114574;28;20434;-65
2022/03/02 00:53:07;;;;;;;42.53;23.42;;;6.50;99.90;;;;;;5111988;28;20040;-65
2022/03/02 00:55:34;;;;;;;44.88;23.55;;;6.50;99.90;;;;;;5113847;28;20092;-65
2022/03/02 00:58:02;;;;;;;43.45;23.02;;;6.50;99.90;;;;;;5113920;28;20176;-65
2022/03/02 01:00:28;;;;;;;41.85;23.52;;;6.50;99.90;;;;;;5113991;28;20047;-65
2022/03/02 01:02:53;;;;;;;45.13;23.05;;;6.50;99.90;;;;;;5113418;27;20484;-66
2022/03/02 01:05:19;;;;;;;42.33;23.50;;;6.50;99.90;;;;;;5113805;28;20038;-66
2022/03/02 01:07:45;;;;;;;45.38;24.50;;;6.50;99.90;;;;;;5113784;28;20040;-65
2022/03/02 01:10:11;;;;;;;46.47;23.65;;;6.40;99.90;;;;;;5113733;28;20484;-66
2022/03/02 01:12:36;;;;;;;42.35;23.35;;;6.40;99.90;;;;;;5112840;28;20036;-65
2022/03/02 01:15:04;;;;;;;42.78;23.65;;;6.40;99.90;;;;;;5113450;28;20039;-66
2022/03/02 01:17:31;;;;;;;41.65;23.17;;;6.40;99.90;;;;;;5113504;28;20047;-66
2022/03/02 01:19:56;;;;;;;42.15;24.38;;;6.40;99.90;;;;;;5113409;28;20035;-66
2022/03/02 01:22:22;;;;;;;40.75;23.48;;;6.40;99.90;;;;;;5112496;28;20055;-66
2022/03/02 01:24:48;;;;;;;44.47;22.70;;;6.40;99.90;;;;;;5113247;27;20058;-66
2022/03/02 01:27:14;;;;;;;41.53;22.55;;;6.40;99.90;;;;;;5113363;28;20077;-66
2022/03/02 01:29:39;;;;;;;48.05;26.00;;;6.30;99.90;;;;;;5113083;28;20035;-66
2022/03/02 01:32:08;;;;;;;43.70;24.38;;;6.30;99.90;;;;;;5112175;28;20144;-65
2022/03/02 01:34:34;;;;;;;42.08;22.58;;;6.30;99.90;;;;;;5113363;28;20039;-65
2022/03/02 01:37:00;;;;;;;46.63;24.48;;;6.30;99.90;;;;;;5113120;28;20108;-65
2022/03/02 01:39:26;;;;;;;45.42;23.77;;;6.20;99.90;;;;;;5113078;28;20097;-65
2022/03/02 01:41:52;;;;;;;43.78;21.73;;;6.20;99.90;;;;;;5112257;27;20047;-65
2022/03/02 01:44:18;;;;;;;40.67;23.98;;;6.20;99.90;;;;;;5112977;28;20040;-65
2022/03/02 01:46:44;;;;;;;45.75;24.23;;;6.20;99.90;;;;;;5111342;28;20537;-65
2022/03/02 01:49:10;;;;;;;41.63;23.55;;;6.20;99.90;;;;;;5112855;28;20118;-65
2022/03/02 01:51:36;;;;;;;45.30;24.40;;;6.10;99.90;;;;;;5112568;28;20048;-66
2022/03/02 01:54:01;;;;;;;44.13;23.45;;;6.10;99.90;;;;;;5112632;27;20143;-65
2022/03/02 01:56:27;;;;;;;43.80;22.90;;;6.10;99.90;;;;;;5112997;28;20045;-65
2022/03/02 01:58:53;;;;;;;45.63;24.13;;;6.10;99.90;;;;;;5116549;28;20035;-66
2022/03/02 02:01:19;;;;;;;42.17;21.35;;;6.00;99.90;;;;;;5116449;28;20031;-66
2022/03/02 02:03:44;;;;;;;49.22;24.88;;;6.00;99.90;;;;;;5111948;28;20038;-65
2022/03/02 02:06:10;;;;;;;43.97;22.55;;;6.10;99.90;;;;;;5112747;28;20451;-66
2022/03/02 02:08:37;;;;;;;44.92;23.90;;;6.00;99.90;;;;;;5112664;28;20043;-65
2022/03/02 02:11:03;;;;;;;46.13;23.60;;;6.00;99.90;;;;;;5112556;28;20126;-66
2022/03/02 02:13:34;;;;;;;44.03;24.02;;;6.00;99.90;;;;;;5111683;27;20051;-66
2022/03/02 02:16:01;;;;;;;48.72;24.25;;;5.90;99.90;;;;;;5112657;28;20071;-65
2022/03/02 02:18:27;;;;;;;40.70;24.30;;;5.90;99.90;;;;;;5112675;27;20457;-65
2022/03/02 02:20:52;;;;;;;45.83;23.83;;;5.90;99.90;;;;;;5112606;28;20119;-65
2022/03/02 02:23:18;;;;;;;49.25;23.45;;;5.90;99.90;;;;;;5111587;28;20038;-65
2022/03/02 02:25:44;;;;;;;46.00;24.63;;;5.90;99.90;;;;;;5112197;28;20063;-66
2022/03/02 02:28:12;;;;;;;42.40;23.15;;;5.90;99.90;;;;;;5112075;28;20100;-66
2022/03/02 02:30:38;;;;;;;45.75;23.88;;;5.90;99.90;;;;;;5112127;28;20040;-66
2022/03/02 02:33:03;;;;;;;47.03;23.88;;;5.90;99.90;;;;;;5111266;28;20084;-65
2022/03/02 02:35:29;;;;;;;45.15;22.98;;;5.90;99.90;;;;;;5111928;28;20468;-66
2022/03/02 02:37:57;;;;;;;49.80;22.40;;;5.90;99.90;;;;;;5111695;28;20047;-65
2022/03/02 02:40:23;;;;;;;45.42;23.25;;;5.90;99.90;;;;;;5111660;28;20043;-65
2022/03/02 02:42:49;;;;;;;48.28;25.05;;;5.90;99.90;;;;;;5111230;28;20344;-65
2022/03/02 02:45:21;;;;;;;44.17;23.10;;;5.90;99.90;;;;;;5111903;28;20072;-66
2022/03/02 02:47:49;;;;;;;41.15;23.15;;;5.90;99.90;;;;;;5111933;28;20047;-65
2022/03/02 02:50:24;;;;;;;47.22;23.95;;;5.90;99.90;;;;;;5111722;28;20490;-65
2022/03/02 02:52:51;;;;;;;42.10;23.70;;;5.90;99.90;;;;;;5111055;28;20375;-66
2022/03/02 02:55:18;;;;;;;46.33;23.88;;;5.90;99.90;;;;;;5111547;28;20043;-66
2022/03/02 02:57:44;;;;;;;46.78;24.13;;;5.90;99.90;;;;;;5111741;28;20401;-65
2022/03/02 03:00:15;;;;;;;45.88;23.67;;;5.90;99.90;;;;;;5110974;28;20036;-65
2022/03/02 03:02:42;;;;;;;45.45;23.58;;;5.90;99.90;;;;;;5110903;28;20043;-65
2022/03/02 03:05:11;;;;;;;49.40;23.40;;;5.90;99.90;;;;;;5111404;28;20035;-65
2022/03/02 03:07:38;;;;;;;50.17;25.00;;;5.90;99.90;;;;;;5115583;28;20070;-65
2022/03/02 03:10:05;;;;;;;48.08;23.60;;;5.90;99.90;;;;;;5118663;28;20047;-65
2022/03/02 03:12:31;;;;;;;48.47;23.95;;;5.90;99.90;;;;;;5111614;28;20051;-65
2022/03/02 03:14:57;;;;;;;47.53;23.90;;;5.90;99.90;;;;;;5111269;28;20058;-65
2022/03/02 03:17:22;;;;;;;48.60;24.50;;;5.90;99.90;;;;;;5111297;28;20395;-65
2022/03/02 03:19:48;;;;;;;42.38;23.58;;;5.90;99.90;;;;;;5111323;28;20468;-65
2022/03/02 03:22:14;;;;;;;43.90;22.45;;;5.80;99.90;;;;;;5110509;28;20035;-66
2022/03/02 03:24:39;;;;;;;43.33;24.02;;;5.80;99.90;;;;;;5111400;28;20405;-65
2022/03/02 03:27:05;;;;;;;45.25;23.95;;;5.80;99.90;;;;;;5111115;28;20131;-66
2022/03/02 03:29:30;;;;;;;48.50;23.65;;;5.80;99.90;;;;;;5111131;28;20036;-66
2022/03/02 03:31:56;;;;;;;43.75;23.48;;;5.70;99.90;;;;;;5110099;28;20046;-66
2022/03/02 03:34:21;;;;;;;53.55;26.30;;;5.70;99.90;;;;;;5110568;28;20082;-66
2022/03/02 03:36:47;;;;;;;44.58;24.58;;;5.70;99.90;;;;;;5110635;28;20058;-65
2022/03/02 03:39:12;;;;;;;46.85;23.30;;;5.70;99.90;;;;;;5111394;28;20043;-66
2022/03/02 03:41:38;;;;;;;48.33;24.23;;;5.70;99.90;;;;;;5110727;28;20056;-65
2022/03/02 03:44:04;;;;;;;48.65;25.20;;;5.60;99.90;;;;;;5109001;28;20040;-66
2022/03/02 03:46:29;;;;;;;46.28;24.77;;;5.60;99.90;;;;;;5110851;28;20126;-65
2022/03/02 03:48:55;;;;;;;45.40;22.27;;;5.60;99.90;;;;;;5110653;28;20491;-66
2022/03/02 03:51:20;;;;;;;45.58;23.35;;;5.60;99.90;;;;;;5110407;28;20384;-66
2022/03/02 03:53:46;;;;;;;48.33;24.50;;;5.60;99.90;;;;;;5110112;28;20464;-66
2022/03/02 03:56:11;;;;;;;44.47;24.33;;;5.60;99.90;;;;;;5110371;28;20051;-65
2022/03/02 03:58:37;;;;;;;47.40;24.17;;;5.60;99.90;;;;;;5110605;28;20035;-65
2022/03/02 04:01:03;;;;;;;47.10;23.83;;;5.60;99.90;;;;;;5110834;28;20112;-66
2022/03/02 04:03:28;;;;;;;43.85;23.38;;;5.60;99.90;;;;;;5109767;28;20404;-66
2022/03/02 04:05:54;;;;;;;50.53;25.25;;;5.60;99.90;;;;;;5108577;28;20101;-66
2022/03/02 04:08:20;;;;;;;48.20;24.48;;;5.60;99.90;;;;;;5110639;28;20039;-66
2022/03/02 04:10:46;;;;;;;47.78;24.33;;;5.60;99.90;;;;;;5110561;28;20520;-65
2022/03/02 04:13:12;;;;;;;50.20;25.08;;;5.60;99.90;;;;;;5109687;28;20079;-65
2022/03/02 04:15:38;;;;;;;50.85;24.10;;;5.60;99.90;;;;;;5110501;28;20082;-65
2022/03/02 04:18:06;;;;;;;45.45;23.88;;;5.60;99.90;;;;;;5110321;28;20051;-65
2022/03/02 04:20:32;;;;;;;45.40;23.00;;;5.50;99.90;;;;;;5113651;28;20040;-66
2022/03/02 04:22:57;;;;;;;49.92;25.13;;;5.60;99.90;;;;;;5116669;28;20032;-66
2022/03/02 04:25:23;;;;;;;44.25;23.40;;;5.60;99.90;;;;;;5111334;28;20091;-65
2022/03/02 04:27:49;;;;;;;47.20;23.63;;;5.60;99.90;;;;;;5110352;28;20046;-65
2022/03/02 04:30:14;;;;;;;47.38;24.15;;;5.50;99.90;;;;;;5110191;28;20039;-65
2022/03/02 04:32:40;;;;;;;45.00;24.27;;;5.60;99.90;;;;;;5109266;28;20456;-66
2022/03/02 04:35:07;;;;;;;50.45;24.73;;;5.60;99.90;;;;;;5109941;28;20047;-65
2022/03/02 04:37:33;;;;;;;48.05;25.05;;;5.50;99.90;;;;;;5110265;28;20043;-65
2022/03/02 04:39:58;;;;;;;46.28;23.98;;;5.60;99.90;;;;;;5110136;28;20039;-65
2022/03/02 04:42:24;;;;;;;50.15;26.15;;;5.60;99.90;;;;;;5109402;28;20480;-65
2022/03/02 04:44:49;;;;;;;47.92;24.40;;;5.60;99.90;;;;;;5110216;28;20040;-65
2022/03/02 04:47:15;;;;;;;47.45;23.42;;;5.50;99.90;;;;;;5110034;28;20097;-65
2022/03/02 04:49:40;;;;;;;44.72;23.58;;;5.50;99.90;;;;;;5109723;28;20263;-65
2022/03/02 04:52:06;;;;;;;43.80;23.65;;;5.50;99.90;;;;;;5109112;28;20111;-66
2022/03/02 04:57:16;;;;;;;44.92;23.48;;;5.40;99.90;;;;;;5110062;28;20085;-65
2022/03/02 04:59:42;;;;;;;46.47;24.05;;;5.50;99.90;;;;;;5109992;28;20131;-65
2022/03/02 05:02:07;;;;;;;45.95;24.55;;;5.40;99.90;;;;;;5108962;28;20042;-65
2022/03/02 05:04:33;;;;;;;49.40;23.85;;;5.40;99.90;;;;;;5109960;28;20036;-65
2022/03/02 05:06:58;;;;;;;46.65;23.75;;;5.40;99.90;;;;;;5109722;28;20389;-66
2022/03/02 05:09:24;;;;;;;44.58;24.88;;;5.40;99.90;;;;;;5109639;28;20036;-66
2022/03/02 05:11:49;;;;;;;47.70;24.80;;;5.40;99.90;;;;;;5108938;28;20348;-66
2022/03/02 05:14:15;;;;;;;50.50;25.55;;;5.30;99.90;;;;;;5109815;28;20036;-65
2022/03/02 05:16:41;;;;;;;47.65;24.77;;;5.30;99.90;;;;;;5109614;28;20044;-65
2022/03/02 05:19:06;;;;;;;52.95;25.88;;;5.20;99.90;;;;;;5108467;28;20043;-66
2022/03/02 05:21:32;;;;;;;47.65;23.85;;;5.30;99.90;;;;;;5109471;28;20177;-64
2022/03/02 05:23:58;;;;;;;46.35;24.42;;;5.30;99.90;;;;;;5111141;28;20062;-65
2022/03/02 05:26:24;;;;;;;49.42;24.80;;;5.40;99.90;;;;;;5113215;28;20028;-65
2022/03/02 05:28:49;;;;;;;48.92;24.00;;;5.30;99.90;;;;;;5113225;28;20039;-65
2022/03/02 05:31:15;;;;;;;50.30;25.73;;;5.30;99.90;;;;;;5112968;28;20213;-65
2022/03/02 05:33:40;;;;;;;47.95;24.10;;;5.30;99.90;;;;;;5114851;28;20180;-66
2022/03/02 05:36:06;;;;;;;50.10;26.27;;;5.30;99.90;;;;;;5117204;28;20028;-65
2022/03/02 05:38:31;;;;;;;48.25;25.50;;;5.30;99.90;;;;;;5114537;28;20047;-65
2022/03/02 05:40:57;;;;;;;53.28;27.23;;;5.30;99.90;;;;;;5113145;28;20038;-65
2022/03/02 05:43:22;;;;;;;49.90;25.50;;;5.30;99.90;;;;;;5112296;28;20070;-65
2022/03/02 05:45:48;;;;;;;46.65;25.17;;;5.30;99.90;;;;;;5112867;28;20046;-65
2022/03/02 05:48:14;;;;;;;44.38;23.85;;;5.30;99.90;;;;;;5112944;28;20043;-65
2022/03/02 05:50:39;;;;;;;49.05;25.80;;;5.30;99.90;;;;;;5112999;28;20044;-65
2022/03/02 05:53:05;;;;;;;52.72;26.30;;;5.30;99.90;;;;;;5111985;28;20127;-65
2022/03/02 05:55:30;;;;;;;47.70;25.02;;;5.30;99.90;;;;;;5113014;28;20039;-65
2022/03/02 05:57:56;;;;;;;49.78;24.63;;;5.30;99.90;;;;;;5112692;28;20167;-65
2022/03/02 06:00:21;;;;;;;48.92;24.95;;;5.30;99.90;;;;;;5112734;28;20058;-65
2022/03/02 06:02:47;;;;;;;54.30;26.70;;;5.30;99.90;;;;;;5112051;28;20551;-65
2022/03/02 06:05:12;;;;;;;50.55;25.42;;;5.20;99.90;;;;;;5112659;28;20349;-65
2022/03/02 06:07:38;;;;;;;50.47;25.95;;;5.20;99.90;;;;;;5113093;28;20081;-65
2022/03/02 06:10:05;;;;;;;50.25;24.90;;;5.30;99.90;;;;;;5112856;28;20044;-65
2022/03/02 06:12:31;;;;;;;51.97;26.45;;;5.20;99.90;;;;;;5111993;28;20051;-65
2022/03/02 06:14:57;;;;;;;54.30;25.98;;;5.20;99.90;;;;;;5112395;28;20051;-65
2022/03/02 06:17:23;;;;;;;49.38;24.15;;;5.30;99.90;;;;;;5112649;28;20043;-65
2022/03/02 06:19:49;;;;;;;49.60;25.15;;;5.20;99.90;;;;;;5105754;28;20373;-65
2022/03/02 06:22:17;;;;;;;45.75;24.33;;;5.20;99.90;;;;;;5100812;27;20032;-66
2022/03/02 06:24:43;;;;;;;49.00;25.90;;;5.20;99.90;;;;;;5102436;28;20039;-65
2022/03/02 06:27:09;;;;;;;52.97;24.80;;;5.20;99.90;;;;;;5108518;28;20128;-65
2022/03/02 06:29:34;;;;;;;49.47;25.73;;;5.20;99.90;;;;;;5110178;28;20047;-65
2022/03/02 06:32:00;;;;;;;49.20;26.63;;;5.20;99.90;;;;;;5109195;28;20035;-66
2022/03/02 06:34:26;;;;;;;50.70;24.55;;;5.20;99.90;;;;;;5107721;28;20537;-66
2022/03/02 06:36:51;;;;;;;49.00;26.15;;;5.20;99.90;;;;;;5111715;28;20136;-66
2022/03/02 06:39:22;;;;;;;49.90;25.35;;;5.20;99.90;;;;;;5112091;28;20039;-66
2022/03/02 06:42:09;;;;;;;48.63;23.75;;;5.20;99.90;;;;;;5111206;28;20039;-64
2022/03/02 06:44:54;;;;;;;48.70;25.90;;;5.20;99.90;;;;;;5112379;28;20066;-66
2022/03/02 06:47:25;;;;;;;48.03;24.85;;;5.20;99.90;;;;;;5115083;28;20043;-66
2022/03/02 06:49:59;;;;;;;45.88;24.55;;;5.20;99.90;;;;;;5117835;28;20118;-66
2022/03/02 06:52:35;;;;;;;48.03;25.15;;;5.20;99.90;;;;;;5111201;28;20043;-66
2022/03/02 06:55:03;;;;;;;53.28;25.77;;;5.20;99.90;;;;;;5111674;28;20535;-64
2022/03/02 06:57:29;;;;;;;45.90;25.00;;;5.10;99.90;;;;;;5111795;28;20089;-65
2022/03/02 07:00:23;;;;;;;48.75;25.27;;;5.10;99.90;;;;;;5111579;28;20062;-64
2022/03/02 07:02:51;;;;;;;44.60;23.73;;;5.20;99.90;;;;;;5110638;28;20043;-65
2022/03/02 07:05:19;;;;;;;50.20;24.98;;;5.20;99.90;;;;;;5111353;28;20511;-64
2022/03/02 07:07:45;;;;;;;47.22;23.50;;;5.20;99.90;;;;;;5111499;28;20377;-65
2022/03/02 07:10:11;;;;;;;48.05;25.83;;;5.20;99.90;;;;;;5093331;27;20137;-65
2022/03/02 07:12:38;;;;;;;48.50;26.08;;;5.20;99.90;;;;;;5069507;28;20661;-65
2022/03/02 07:15:05;;;;;;;50.97;25.58;;;5.20;99.90;;;;;;5070327;28;20040;-65
2022/03/02 07:17:32;;;;;;;43.05;24.20;;;5.20;99.90;;;;;;5070160;28;20127;-65
2022/03/02 07:20:03;;;;;;;44.03;23.27;;;5.20;99.90;;;;;;5070510;28;20048;-65
2022/03/02 07:22:38;;;;;;;46.92;25.02;;;5.20;99.90;;;;;;5069639;28;20051;-65
2022/03/02 07:25:13;;;;;;;46.35;24.23;;;5.20;99.90;;;;;;5068738;28;20497;-65
2022/03/02 07:27:40;;;;;;;47.92;24.48;;;5.20;99.90;;;;;;5070057;28;20040;-66
2022/03/02 07:30:08;;;;;;;42.72;23.20;;;5.20;99.90;;;;;;5070834;28;20044;-68
2022/03/02 07:32:36;;;;;;;45.00;23.60;;;5.20;99.90;;;;;;5069642;28;20116;-64
2022/03/02 07:35:04;;;;;;;48.03;23.65;;;5.20;99.90;;;;;;5069311;28;20041;-65
2022/03/02 07:37:31;;;;;;;49.75;24.13;;;5.20;99.90;;;;;;5070429;28;20041;-64
2022/03/02 07:39:57;;;;;;;43.85;23.92;;;5.30;99.90;;;;;;5070396;28;20465;-64
2022/03/02 07:42:23;;;;;;;51.20;24.35;;;5.30;99.90;;;;;;5069368;28;20044;-65
2022/03/02 07:44:49;;;;;;;49.15;24.48;;;5.20;99.90;;;;;;5070549;28;20050;-65
2022/03/02 07:47:16;;;;;;;43.50;24.35;;;5.30;99.90;;;;;;5069978;28;20044;-66
2022/03/02 07:49:42;;;;;;;47.08;24.02;;;5.30;99.90;;;;;;5070195;28;20058;-66
2022/03/02 07:52:09;;;;;;;44.33;23.75;;;5.30;99.90;;;;;;5068030;28;20052;-66
2022/03/02 07:54:38;;;;;;;44.63;24.33;;;5.40;99.90;;;;;;5070042;28;20055;-66
2022/03/02 07:57:08;;;;;;;41.78;22.48;;;5.40;99.90;;;;;;5069717;28;20036;-64
2022/03/02 07:59:42;;;;;;;45.90;23.58;;;5.40;99.90;;;;;;5070156;28;20082;-64
2022/03/02 08:02:10;;;;;;;44.45;22.60;;;5.40;99.90;;;;;;5069488;28;20074;-65
2022/03/02 08:04:36;;;;;;;50.63;23.77;;;5.50;99.90;;;;;;5070191;28;20111;-65
2022/03/02 08:07:02;;;;;;;44.72;22.55;;;5.50;99.90;;;;;;5069897;28;20036;-66
2022/03/02 08:09:31;;;;;;;44.47;23.35;;;5.60;99.90;;;;;;5070136;28;20056;-65
2022/03/02 08:11:58;;;;;;;46.38;22.52;;;5.60;99.90;;;;;;5069267;28;20055;-65
2022/03/02 08:14:24;;;;;;;40.35;23.13;;;5.60;99.90;;;;;;5080219;28;20044;-65
2022/03/02 08:16:51;;;;;;;46.17;23.17;;;5.70;99.90;;;;;;5078442;28;20041;-66
2022/03/02 08:19:18;;;;;;;40.90;21.92;;;5.70;99.90;;;;;;5079759;28;20039;-65
2022/03/02 08:21:50;;;;;;;38.20;20.90;;;5.80;99.90;;;;;;5077493;28;20033;-65
2022/03/02 08:24:17;;;;;;;38.85;20.67;;;5.90;99.90;;;;;;5080480;28;20051;-65
2022/03/02 08:26:48;;;;;;;42.47;21.13;;;5.90;99.90;;;;;;5078781;28;20101;-65
2022/03/02 08:29:14;;;;;;;41.75;21.95;;;6.00;99.90;;;;;;5079447;28;20492;-64
2022/03/02 08:31:41;;;;;;;41.10;21.33;;;6.00;99.90;;;;;;5079207;28;20044;-65
2022/03/02 08:34:08;;;;;;;45.22;23.02;;;6.00;99.90;;;;;;5086245;28;20079;-64
2022/03/02 08:36:34;;;;;;;40.15;20.58;;;6.10;99.90;;;;;;5089613;28;20047;-64
2022/03/02 08:39:04;;;;;;;37.22;19.88;;;6.10;99.90;;;;;;5090163;28;20115;-65
2022/03/02 08:41:30;;;;;;;44.00;20.95;;;6.10;99.90;;;;;;5089809;28;20111;-65
2022/03/02 08:43:57;;;;;;;39.78;21.73;;;6.10;99.90;;;;;;5089199;28;20032;-70
2022/03/02 08:46:24;;;;;;;39.40;21.13;;;6.10;99.90;;;;;;5089833;28;20040;-69
2022/03/02 08:48:50;;;;;;;41.92;21.30;;;6.40;99.90;;;;;;5088242;28;20369;-69
2022/03/02 08:51:21;;;;;;;36.95;19.58;;;6.30;99.90;;;;;;5089565;28;20043;-70
2022/03/02 08:53:50;;;;;;;39.42;20.15;;;6.30;99.90;;;;;;5089089;28;20102;-69
2022/03/02 08:56:16;;;;;;;42.78;20.58;;;6.30;99.90;;;;;;5089470;28;20051;-69
2022/03/02 08:58:43;;;;;;;39.92;20.98;;;6.30;99.90;;;;;;5091441;28;20137;-69
2022/03/02 09:01:11;;;;;;;43.17;19.80;;;6.40;99.90;;;;;;5093760;28;20032;-69
2022/03/02 09:03:40;;;;;;;37.60;20.13;;;6.40;99.90;;;;;;5092575;28;20035;-68
2022/03/02 09:06:07;;;;;;;34.28;19.63;;;6.40;99.90;;;;;;5093469;28;20036;-68
2022/03/02 09:08:33;;;;;;;40.97;20.15;;;6.50;99.90;;;;;;5093421;28;20047;-69
2022/03/02 09:10:59;;;;;;;37.70;18.55;;;6.50;99.90;;;;;;5093444;28;20437;-69
2022/03/02 09:13:25;;;;;;;36.70;18.38;;;6.70;99.90;;;;;;5093074;28;20055;-69
2022/03/02 09:15:51;;;;;;;37.72;17.77;;;6.70;99.90;;;;;;5094456;28;20047;-69
2022/03/02 09:18:17;;;;;;;30.73;16.80;;;6.80;99.90;;;;;;5093502;28;20757;-69
2022/03/02 09:20:43;;;;;;;34.25;17.30;;;6.80;99.90;;;;;;5092910;28;20114;-69
2022/03/02 09:23:09;;;;;;;32.78;15.98;;;6.90;99.90;;;;;;5092459;28;20032;-68
2022/03/02 09:25:38;;;;;;;32.72;16.38;;;6.90;99.90;;;;;;5093030;28;20095;-69
2022/03/02 09:28:05;;;;;;;30.65;16.45;;;7.00;99.90;;;;;;5079473;28;20037;-69
2022/03/02 09:30:30;;;;;;;30.23;16.45;;;7.10;99.90;;;;;;5071690;28;20036;-69
2022/03/02 09:33:00;;;;;;;30.10;15.90;;;7.00;99.90;;;;;;5071614;28;20044;-69
2022/03/02 09:35:26;;;;;;;30.20;15.70;;;7.10;99.90;;;;;;5072711;28;20086;-69
2022/03/02 09:37:54;;;;;;;28.48;15.13;;;7.20;99.90;;;;;;5072547;28;20049;-68
2022/03/02 09:40:24;;;;;;;30.73;15.05;;;7.20;99.90;;;;;;5072544;28;20043;-69
2022/03/02 09:42:58;;;;;;;27.63;14.70;;;7.30;99.90;;;;;;5070453;28;20417;-69
2022/03/02 09:45:27;;;;;;;28.85;14.13;;;7.30;99.90;;;;;;5072300;28;20046;-69
2022/03/02 09:47:58;;;;;;;26.23;14.27;;;7.40;99.90;;;;;;5070970;28;20044;-68
2022/03/02 09:50:32;;;;;;;27.73;14.50;;;7.40;97.40;;;;;;5072326;28;20064;-69
2022/03/02 09:53:02;;;;;;;31.17;15.10;;;7.50;99.90;;;;;;5070482;28;20052;-69
2022/03/02 09:55:28;;;;;;;27.42;14.10;;;7.50;88.90;;;;;;5072434;28;20040;-69
2022/03/02 09:57:59;;;;;;;28.40;15.88;;;7.50;99.40;;;;;;5071970;28;20419;-69
2022/03/02 10:00:26;;;;;;;28.52;15.43;;;7.60;96.90;;;;;;5071024;28;20048;-69
2022/03/02 10:02:57;;;;;;;26.33;14.70;;;7.60;97.40;;;;;;5071534;28;20098;-69
2022/03/02 10:05:26;;;;;;;28.88;14.55;;;7.60;99.90;;;;;;5072223;28;20033;-69
2022/03/02 10:08:19;;;;;;;31.33;17.48;;;7.70;96.00;;;;;;5072149;28;20534;-69
2022/03/02 10:10:46;;;;;;;;;;;7.70;99.90;;;;;;5069195;28;20056;-68
2022/03/02 10:13:14;;;;;;;28.58;14.73;;;7.80;99.90;;;;;;5071249;28;20018;-68
2022/03/02 10:15:41;;;;;;;28.58;16.15;;;7.80;99.90;;;;;;5072069;28;20055;-68
2022/03/02 10:18:10;;;;;;;31.98;15.25;;;7.90;99.90;;;;;;5072129;28;20350;-68
2022/03/02 10:20:39;;;;;;;27.92;15.35;;;8.00;99.90;;;;;;5072229;28;20032;-68
2022/03/02 10:23:29;;;;;;;28.23;14.60;;;8.00;96.60;;;;;;5071709;28;20088;-68
2022/03/02 10:26:02;;;;;;;27.77;14.93;;;7.90;95.70;;;;;;5072102;28;20118;-69
2022/03/02 10:28:39;;;;;;;29.75;15.43;;;8.00;91.00;;;;;;5076525;28;20124;-69
2022/03/02 10:31:31;;;;;;;28.48;15.32;;;8.00;97.90;;;;;;5075478;28;20425;-68
2022/03/02 10:34:07;;;;;;;31.23;15.32;;;8.00;95.70;;;;;;5071304;28;20044;-69
2022/03/02 10:36:41;;;;;;;28.23;15.00;;;8.20;98.50;;;;;;5071530;28;20040;-69
2022/03/02 10:39:07;;;;;;;37.67;16.80;;;8.10;98.60;;;;;;5071401;28;20032;-69
2022/03/02 10:41:37;;;;;;;28.83;14.57;;;8.20;99.90;;;;;;5070923;28;20615;-68
2022/03/02 10:44:23;;;;;;;31.75;16.10;;;8.20;91.40;;;;;;5070939;28;20040;-69
2022/03/02 10:47:03;;;;;;;28.17;15.00;;;8.10;89.50;;;;;;5071398;28;20044;-69
2022/03/02 10:49:30;;;;;;;28.23;15.18;;;8.20;94.00;;;;;;5071237;28;20060;-70
2022/03/02 10:51:57;;;;;;;28.67;15.73;;;8.30;96.00;;;;;;5070333;28;20091;-68
2022/03/02 10:54:26;;;;;;;32.15;17.50;;;8.30;89.40;;;;;;5071350;28;20048;-69
2022/03/02 10:56:55;;;;;;;32.05;14.95;;;8.30;96.30;;;;;;5070954;28;20096;-69
2022/03/02 10:59:23;;;;;;;26.27;15.27;;;8.40;97.90;;;;;;5071149;28;20320;-69
2022/03/02 11:01:50;;;;;;;26.48;14.55;;;8.40;83.60;;;;;;5070433;28;20412;-69
2022/03/02 11:04:19;;;;;;;29.20;15.40;;;8.40;81.60;;;;;;5071106;28;20111;-69
2022/03/02 11:06:44;;;;;;;32.47;15.95;;;8.40;93.00;;;;;;5070977;28;20041;-69
2022/03/02 11:09:10;;;;;;;32.72;15.57;;;8.40;88.30;;;;;;5071015;28;20043;-68
2022/03/02 11:11:36;;;;;;;30.42;15.38;;;8.40;88.50;;;;;;5070532;28;20579;-69
2022/03/02 11:14:04;;;;;;;27.75;14.52;;;8.50;95.50;;;;;;5070332;28;20046;-69
2022/03/02 11:16:30;;;;;;;29.15;15.55;;;8.50;90.00;;;;;;5070680;28;20370;-69
2022/03/02 11:18:55;;;;;;;27.27;14.20;;;8.50;98.60;;;;;;5070549;28;20112;-69
2022/03/02 11:21:30;;;;;;;32.42;15.65;;;8.60;93.40;;;;;;5069875;28;20090;-69
2022/03/02 11:24:00;;;;;;;28.10;14.82;;;8.60;90.20;;;;;;5070098;28;20041;-69
2022/03/02 11:26:35;;;;;;;30.25;15.93;;;8.70;95.50;;;;;;5070523;28;20071;-69
2022/03/02 11:29:11;;;;;;;26.85;15.50;;;8.70;94.10;;;;;;5070510;28;20055;-69
2022/03/02 11:31:41;;;;;;;29.42;14.80;;;8.70;91.60;;;;;;5069949;28;20047;-69
2022/03/02 11:34:09;;;;;;;28.58;15.02;;;8.70;78.80;;;;;;5070145;28;20618;-70
2022/03/02 11:36:36;;;;;;;28.10;15.10;;;8.80;92.50;;;;;;5069343;28;20055;-69
2022/03/02 11:39:04;;;;;;;28.35;14.57;;;8.80;92.20;;;;;;5070804;28;20113;-69
2022/03/02 11:41:34;;;;;;;28.85;14.90;;;8.90;95.60;;;;;;5071551;28;20036;-68
2022/03/02 11:44:02;;;;;;;30.20;15.27;;;9.00;94.20;;;;;;5073731;28;20032;-69
2022/03/02 11:46:28;;;;;;;27.25;14.82;;;9.00;78.90;;;;;;5071306;28;20355;-69
2022/03/02 11:48:54;;;;;;;26.45;14.13;;;9.10;86.40;;;;;;5070857;28;20055;-68
2022/03/02 11:51:23;;;;;;;26.85;14.73;;;9.00;77.30;;;;;;5052334;28;20044;-70
2022/03/02 11:54:00;;;;;;;24.27;14.13;;;9.00;80.20;;;;;;5069732;28;20074;-68
2022/03/02 11:56:28;;;;;;;28.25;14.80;;;9.00;77.10;;;;;;5069990;28;20135;-68
2022/03/02 11:59:08;;;;;;;26.40;14.75;;;9.00;78.30;;;;;;5070281;28;20036;-68
2022/03/02 12:01:44;;;;;;;25.10;14.75;;;9.00;77.60;;;;;;5069983;28;20431;-68
2022/03/02 12:04:11;;;;;;;26.77;14.18;;;9.10;83.60;;;;;;5070275;28;20094;-69
2022/03/02 12:06:39;;;;;;;27.15;14.65;;;9.10;81.50;;;;;;5069941;28;20576;-68
2022/03/02 12:09:06;;;;;;;26.08;14.63;;;9.20;83.90;;;;;;5069868;28;20441;-68
2022/03/02 12:11:34;;;;;;;26.02;14.52;;;9.20;71.50;;;;;;5069839;28;20044;-68
2022/03/02 12:14:08;;;;;;;16.45;9.15;;;9.20;66.40;;;;;;5069790;28;20043;-69
2022/03/02 12:16:47;;;;;;;24.45;14.70;;;10.40;71.90;;;;;;5069898;28;20051;-72
2022/03/02 12:19:24;;;;;;;21.70;12.52;;;9.90;62.90;;;;;;5070422;28;20072;-70
2022/03/02 12:21:54;;;;;;;28.33;14.70;;;11.00;64.20;;;;;;5069376;28;20032;-72
2022/03/02 12:24:29;;;;;;;26.83;14.13;;;10.30;63.60;;;;;;5070036;28;20105;-67
2022/03/02 12:27:09;;;;;;;28.98;15.70;;;10.20;62.50;;;;;;5070034;28;20049;-67
2022/03/02 12:29:40;;;;;;;22.80;12.90;;;10.00;61.40;;;;;;5069822;28;20044;-72
2022/03/02 12:32:10;;;;;;;30.08;14.55;;;9.90;63.20;;;;;;5069241;28;20051;-71
2022/03/02 12:34:41;;;;;;;26.23;14.38;;;9.90;63.80;;;;;;5073336;28;20037;-71
2022/03/02 12:37:08;;;;;;;23.55;13.45;;;9.90;62.20;;;;;;5073991;28;20061;-67
2022/03/02 12:39:35;;;;;;;31.05;14.38;;;9.90;65.20;;;;;;5072535;28;20120;-67
2022/03/02 12:42:04;;;;;;;26.52;14.55;;;9.80;63.60;;;;;;5073304;28;20143;-67
2022/03/02 12:44:35;;;;;;;26.48;14.40;;;9.80;69.80;;;;;;5073695;28;20033;-67